sensor_id;sensor_type;location;lat;lon;timestamp;temperature;humidity
780;DHT22;373;49.342;8.146;2022-08-19T00:01:26;21.20;99.90
780;DHT22;373;49.342;8.146;2022-08-19T00:03:55;21.20;99.90
780;DHT22;373;49.342;8.146;2022-08-19T00:06:22;21.20;99.90
780;DHT22;373;49.342;8.146;2022-08-19T00:08:49;21.20;99.90
780;DHT22;373;49.342;8.146;2022-08-19T00:11:18;21.10;99.90
780;DHT22;373;49.342;8.146;2022-08-19T00:13:46;21.10;99.90
780;DHT22;373;49.342;8.146;2022-08-19T00:16:14;21.00;99.90
780;DHT22;373;49.342;8.146;2022-08-19T00:18:41;21.10;99.90
780;DHT22;373;49.342;8.146;2022-08-19T00:21:08;21.10;99.90
780;DHT22;373;49.342;8.146;2022-08-19T00:23:35;21.10;99.90
780;DHT22;373;49.342;8.146;2022-08-19T00:26:03;21.00;99.90
780;DHT22;373;49.342;8.146;2022-08-19T00:28:33;21.10;99.90
780;DHT22;373;49.342;8.146;2022-08-19T00:31:01;21.10;99.90
780;DHT22;373;49.342;8.146;2022-08-19T00:33:28;21.20;99.90
780;DHT22;373;49.342;8.146;2022-08-19T00:35:58;21.10;99.90
780;DHT22;373;49.342;8.146;2022-08-19T00:38:25;21.00;99.90
780;DHT22;373;49.342;8.146;2022-08-19T00:40:52;21.10;99.90
780;DHT22;373;49.342;8.146;2022-08-19T00:43:21;21.00;99.90
780;DHT22;373;49.342;8.146;2022-08-19T00:45:50;21.10;99.90
780;DHT22;373;49.342;8.146;2022-08-19T00:48:18;21.20;99.90
780;DHT22;373;49.342;8.146;2022-08-19T00:50:48;21.10;99.90
780;DHT22;373;49.342;8.146;2022-08-19T00:53:19;21.30;99.90
780;DHT22;373;49.342;8.146;2022-08-19T00:55:48;21.20;99.90
780;DHT22;373;49.342;8.146;2022-08-19T00:58:19;21.10;99.90
780;DHT22;373;49.342;8.146;2022-08-19T01:00:47;21.20;99.90
780;DHT22;373;49.342;8.146;2022-08-19T01:03:19;21.20;99.90
780;DHT22;373;49.342;8.146;2022-08-19T01:05:47;21.20;99.90
780;DHT22;373;49.342;8.146;2022-08-19T01:08:16;21.20;99.90
780;DHT22;373;49.342;8.146;2022-08-19T01:10:46;21.10;99.90
780;DHT22;373;49.342;8.146;2022-08-19T01:13:15;21.10;99.90
780;DHT22;373;49.342;8.146;2022-08-19T01:15:45;21.00;99.90
780;DHT22;373;49.342;8.146;2022-08-19T01:18:17;20.90;99.90
780;DHT22;373;49.342;8.146;2022-08-19T01:20:45;21.00;99.90
780;DHT22;373;49.342;8.146;2022-08-19T01:23:14;21.10;99.90
780;DHT22;373;49.342;8.146;2022-08-19T01:25:45;21.00;99.90
780;DHT22;373;49.342;8.146;2022-08-19T01:28:18;21.00;99.90
780;DHT22;373;49.342;8.146;2022-08-19T01:30:46;21.00;99.90
780;DHT22;373;49.342;8.146;2022-08-19T01:33:13;21.00;99.90
780;DHT22;373;49.342;8.146;2022-08-19T01:35:41;20.90;99.90
780;DHT22;373;49.342;8.146;2022-08-19T01:38:18;20.90;99.90
780;DHT22;373;49.342;8.146;2022-08-19T01:40:47;20.90;99.90
780;DHT22;373;49.342;8.146;2022-08-19T01:43:14;20.90;99.90
780;DHT22;373;49.342;8.146;2022-08-19T01:45:41;20.90;99.90
780;DHT22;373;49.342;8.146;2022-08-19T01:48:08;21.00;99.90
780;DHT22;373;49.342;8.146;2022-08-19T01:50:37;20.90;99.90
780;DHT22;373;49.342;8.146;2022-08-19T01:53:06;20.90;99.90
780;DHT22;373;49.342;8.146;2022-08-19T01:55:35;20.90;99.90
780;DHT22;373;49.342;8.146;2022-08-19T01:58:05;20.90;99.90
780;DHT22;373;49.342;8.146;2022-08-19T02:00:34;20.90;99.90
780;DHT22;373;49.342;8.146;2022-08-19T02:03:01;20.90;99.90
780;DHT22;373;49.342;8.146;2022-08-19T02:05:28;20.90;99.90
780;DHT22;373;49.342;8.146;2022-08-19T02:07:56;20.80;99.90
780;DHT22;373;49.342;8.146;2022-08-19T02:10:25;20.90;99.90
780;DHT22;373;49.342;8.146;2022-08-19T02:12:52;21.00;99.90
780;DHT22;373;49.342;8.146;2022-08-19T02:15:20;21.00;99.90
780;DHT22;373;49.342;8.146;2022-08-19T02:17:48;21.00;99.90
780;DHT22;373;49.342;8.146;2022-08-19T02:20:16;21.00;99.90
780;DHT22;373;49.342;8.146;2022-08-19T02:22:43;20.90;99.90
780;DHT22;373;49.342;8.146;2022-08-19T02:25:11;20.90;99.90
780;DHT22;373;49.342;8.146;2022-08-19T02:27:39;20.80;99.90
780;DHT22;373;49.342;8.146;2022-08-19T02:30:09;20.90;99.90
780;DHT22;373;49.342;8.146;2022-08-19T02:32:38;20.80;99.90
780;DHT22;373;49.342;8.146;2022-08-19T02:35:06;20.80;99.90
780;DHT22;373;49.342;8.146;2022-08-19T02:37:34;20.90;99.90
780;DHT22;373;49.342;8.146;2022-08-19T02:40:18;20.80;99.90
780;DHT22;373;49.342;8.146;2022-08-19T02:42:46;20.90;99.90
780;DHT22;373;49.342;8.146;2022-08-19T02:45:13;20.80;99.90
780;DHT22;373;49.342;8.146;2022-08-19T02:47:44;20.80;99.90
780;DHT22;373;49.342;8.146;2022-08-19T02:50:12;20.80;99.90
780;DHT22;373;49.342;8.146;2022-08-19T02:52:50;20.70;99.90
780;DHT22;373;49.342;8.146;2022-08-19T02:55:23;20.70;99.90
780;DHT22;373;49.342;8.146;2022-08-19T02:58:03;20.70;99.90
780;DHT22;373;49.342;8.146;2022-08-19T03:00:41;20.70;99.90
780;DHT22;373;49.342;8.146;2022-08-19T03:03:30;20.70;99.90
780;DHT22;373;49.342;8.146;2022-08-19T03:06:09;20.70;99.90
780;DHT22;373;49.342;8.146;2022-08-19T03:08:45;20.70;99.90
780;DHT22;373;49.342;8.146;2022-08-19T03:11:25;20.70;99.90
780;DHT22;373;49.342;8.146;2022-08-19T03:14:14;20.90;99.90
780;DHT22;373;49.342;8.146;2022-08-19T03:16:52;20.80;99.90
780;DHT22;373;49.342;8.146;2022-08-19T03:19:34;20.70;99.90
780;DHT22;373;49.342;8.146;2022-08-19T03:22:02;20.70;99.90
780;DHT22;373;49.342;8.146;2022-08-19T03:24:39;20.70;99.90
780;DHT22;373;49.342;8.146;2022-08-19T03:27:14;20.70;99.90
780;DHT22;373;49.342;8.146;2022-08-19T03:29:46;20.80;99.90
780;DHT22;373;49.342;8.146;2022-08-19T03:32:20;20.70;99.90
780;DHT22;373;49.342;8.146;2022-08-19T03:35:19;20.80;99.90
780;DHT22;373;49.342;8.146;2022-08-19T03:38:09;20.70;99.90
780;DHT22;373;49.342;8.146;2022-08-19T03:40:54;20.80;99.90
780;DHT22;373;49.342;8.146;2022-08-19T03:43:46;20.70;99.90
780;DHT22;373;49.342;8.146;2022-08-19T03:46:28;20.80;99.90
780;DHT22;373;49.342;8.146;2022-08-19T03:49:13;20.80;99.90
780;DHT22;373;49.342;8.146;2022-08-19T03:51:49;20.80;99.90
780;DHT22;373;49.342;8.146;2022-08-19T03:54:29;20.80;99.90
780;DHT22;373;49.342;8.146;2022-08-19T03:57:20;20.70;99.90
780;DHT22;373;49.342;8.146;2022-08-19T04:00:09;20.50;99.90
780;DHT22;373;49.342;8.146;2022-08-19T04:02:53;20.60;99.90
780;DHT22;373;49.342;8.146;2022-08-19T04:05:31;20.60;99.90
780;DHT22;373;49.342;8.146;2022-08-19T04:08:03;20.50;99.90
780;DHT22;373;49.342;8.146;2022-08-19T04:10:40;20.50;99.90
780;DHT22;373;49.342;8.146;2022-08-19T04:13:16;20.40;99.90
780;DHT22;373;49.342;8.146;2022-08-19T04:15:45;20.40;99.90
780;DHT22;373;49.342;8.146;2022-08-19T04:18:26;20.40;99.90
780;DHT22;373;49.342;8.146;2022-08-19T04:21:08;20.50;99.90
780;DHT22;373;49.342;8.146;2022-08-19T04:23:46;20.50;99.90
780;DHT22;373;49.342;8.146;2022-08-19T04:26:14;20.50;99.90
780;DHT22;373;49.342;8.146;2022-08-19T04:28:46;20.40;99.90
780;DHT22;373;49.342;8.146;2022-08-19T04:31:28;20.40;99.90
780;DHT22;373;49.342;8.146;2022-08-19T04:34:18;20.40;99.90
780;DHT22;373;49.342;8.146;2022-08-19T04:36:53;20.40;99.90
780;DHT22;373;49.342;8.146;2022-08-19T04:39:31;20.40;99.90
780;DHT22;373;49.342;8.146;2022-08-19T04:42:28;20.40;99.90
780;DHT22;373;49.342;8.146;2022-08-19T04:45:13;20.40;99.90
780;DHT22;373;49.342;8.146;2022-08-19T04:48:00;20.40;99.90
780;DHT22;373;49.342;8.146;2022-08-19T04:50:40;20.40;99.90
780;DHT22;373;49.342;8.146;2022-08-19T04:53:08;20.30;99.90
780;DHT22;373;49.342;8.146;2022-08-19T04:55:41;20.40;99.90
780;DHT22;373;49.342;8.146;2022-08-19T04:58:35;20.40;99.90
780;DHT22;373;49.342;8.146;2022-08-19T05:01:05;20.50;99.90
780;DHT22;373;49.342;8.146;2022-08-19T05:03:45;20.60;99.90
780;DHT22;373;49.342;8.146;2022-08-19T05:06:25;20.60;99.90
780;DHT22;373;49.342;8.146;2022-08-19T05:09:02;20.50;99.90
780;DHT22;373;49.342;8.146;2022-08-19T05:11:33;20.60;99.90
780;DHT22;373;49.342;8.146;2022-08-19T05:14:16;20.60;99.90
780;DHT22;373;49.342;8.146;2022-08-19T05:16:50;20.60;99.90
780;DHT22;373;49.342;8.146;2022-08-19T05:19:29;20.50;99.90
780;DHT22;373;49.342;8.146;2022-08-19T05:22:25;20.50;99.90
780;DHT22;373;49.342;8.146;2022-08-19T05:25:06;20.60;99.90
780;DHT22;373;49.342;8.146;2022-08-19T05:27:49;20.70;99.90
780;DHT22;373;49.342;8.146;2022-08-19T05:30:34;20.80;99.90
780;DHT22;373;49.342;8.146;2022-08-19T05:33:01;21.00;99.90
780;DHT22;373;49.342;8.146;2022-08-19T05:35:40;20.90;99.90
780;DHT22;373;49.342;8.146;2022-08-19T05:38:28;20.90;99.90
780;DHT22;373;49.342;8.146;2022-08-19T05:41:10;20.90;99.90
780;DHT22;373;49.342;8.146;2022-08-19T05:43:39;20.90;99.90
780;DHT22;373;49.342;8.146;2022-08-19T05:46:15;21.00;99.90
780;DHT22;373;49.342;8.146;2022-08-19T05:48:50;21.10;99.90
780;DHT22;373;49.342;8.146;2022-08-19T05:51:41;21.20;99.90
780;DHT22;373;49.342;8.146;2022-08-19T05:54:12;21.30;99.90
780;DHT22;373;49.342;8.146;2022-08-19T05:56:56;21.40;99.90
780;DHT22;373;49.342;8.146;2022-08-19T05:59:52;21.50;99.90
780;DHT22;373;49.342;8.146;2022-08-19T06:02:29;21.50;99.90
780;DHT22;373;49.342;8.146;2022-08-19T06:05:18;21.70;99.90
780;DHT22;373;49.342;8.146;2022-08-19T06:08:21;21.50;99.90
780;DHT22;373;49.342;8.146;2022-08-19T06:11:20;21.60;99.90
780;DHT22;373;49.342;8.146;2022-08-19T06:14:03;21.70;99.90
780;DHT22;373;49.342;8.146;2022-08-19T06:16:37;21.60;99.90
780;DHT22;373;49.342;8.146;2022-08-19T06:19:12;21.80;99.90
780;DHT22;373;49.342;8.146;2022-08-19T06:21:48;21.90;99.90
780;DHT22;373;49.342;8.146;2022-08-19T06:24:23;21.80;99.90
780;DHT22;373;49.342;8.146;2022-08-19T06:26:58;21.90;99.90
780;DHT22;373;49.342;8.146;2022-08-19T06:29:28;21.90;99.90
780;DHT22;373;49.342;8.146;2022-08-19T06:32:03;21.90;99.90
780;DHT22;373;49.342;8.146;2022-08-19T06:34:42;21.80;99.90
780;DHT22;373;49.342;8.146;2022-08-19T06:37:13;21.80;99.90
780;DHT22;373;49.342;8.146;2022-08-19T06:39:43;21.80;99.90
780;DHT22;373;49.342;8.146;2022-08-19T06:42:22;21.90;99.90
780;DHT22;373;49.342;8.146;2022-08-19T06:44:57;22.00;99.90
780;DHT22;373;49.342;8.146;2022-08-19T06:48:02;22.10;99.90
780;DHT22;373;49.342;8.146;2022-08-19T06:50:30;22.00;99.90
780;DHT22;373;49.342;8.146;2022-08-19T06:53:03;22.10;99.90
780;DHT22;373;49.342;8.146;2022-08-19T06:55:36;22.20;99.90
780;DHT22;373;49.342;8.146;2022-08-19T06:58:14;22.20;99.90
780;DHT22;373;49.342;8.146;2022-08-19T07:00:43;22.40;99.90
780;DHT22;373;49.342;8.146;2022-08-19T07:03:18;22.40;99.90
780;DHT22;373;49.342;8.146;2022-08-19T07:06:11;22.60;99.90
780;DHT22;373;49.342;8.146;2022-08-19T07:08:47;22.40;99.90
780;DHT22;373;49.342;8.146;2022-08-19T07:11:28;22.50;99.90
780;DHT22;373;49.342;8.146;2022-08-19T07:13:59;22.50;99.90
780;DHT22;373;49.342;8.146;2022-08-19T07:16:32;22.50;99.90
780;DHT22;373;49.342;8.146;2022-08-19T07:19:01;22.50;99.90
780;DHT22;373;49.342;8.146;2022-08-19T07:24:17;22.80;99.90
780;DHT22;373;49.342;8.146;2022-08-19T07:27:07;22.80;99.90
780;DHT22;373;49.342;8.146;2022-08-19T07:29:42;22.80;99.90
780;DHT22;373;49.342;8.146;2022-08-19T07:32:09;23.00;99.90
780;DHT22;373;49.342;8.146;2022-08-19T07:34:39;23.20;99.90
780;DHT22;373;49.342;8.146;2022-08-19T07:37:09;23.30;99.90
780;DHT22;373;49.342;8.146;2022-08-19T07:39:38;23.50;99.90
780;DHT22;373;49.342;8.146;2022-08-19T07:42:10;23.50;99.90
780;DHT22;373;49.342;8.146;2022-08-19T07:44:37;23.50;99.90
780;DHT22;373;49.342;8.146;2022-08-19T07:47:04;23.50;99.90
780;DHT22;373;49.342;8.146;2022-08-19T07:49:32;24.00;99.80
780;DHT22;373;49.342;8.146;2022-08-19T07:52:05;24.10;98.80
780;DHT22;373;49.342;8.146;2022-08-19T07:54:35;24.70;97.40
780;DHT22;373;49.342;8.146;2022-08-19T07:57:04;25.00;96.80
780;DHT22;373;49.342;8.146;2022-08-19T07:59:33;25.50;95.60
780;DHT22;373;49.342;8.146;2022-08-19T08:02:06;25.60;94.90
780;DHT22;373;49.342;8.146;2022-08-19T08:04:33;25.80;94.40
780;DHT22;373;49.342;8.146;2022-08-19T08:07:21;25.40;95.20
780;DHT22;373;49.342;8.146;2022-08-19T08:10:06;25.50;95.20
780;DHT22;373;49.342;8.146;2022-08-19T08:12:39;25.40;94.90
780;DHT22;373;49.342;8.146;2022-08-19T08:15:13;25.40;95.80
780;DHT22;373;49.342;8.146;2022-08-19T08:17:46;25.30;95.70
780;DHT22;373;49.342;8.146;2022-08-19T08:20:14;25.40;95.30
780;DHT22;373;49.342;8.146;2022-08-19T08:22:47;25.60;94.90
780;DHT22;373;49.342;8.146;2022-08-19T08:25:35;25.80;94.20
780;DHT22;373;49.342;8.146;2022-08-19T08:28:04;26.60;94.30
780;DHT22;373;49.342;8.146;2022-08-19T08:30:31;27.60;91.50
780;DHT22;373;49.342;8.146;2022-08-19T08:33:04;28.80;89.10
780;DHT22;373;49.342;8.146;2022-08-19T08:35:32;29.00;85.90
780;DHT22;373;49.342;8.146;2022-08-19T08:38:25;29.10;85.80
780;DHT22;373;49.342;8.146;2022-08-19T08:41:02;28.80;83.40
780;DHT22;373;49.342;8.146;2022-08-19T08:43:37;28.60;83.80
780;DHT22;373;49.342;8.146;2022-08-19T08:46:13;28.30;84.70
780;DHT22;373;49.342;8.146;2022-08-19T08:48:51;28.10;86.00
780;DHT22;373;49.342;8.146;2022-08-19T08:51:24;27.90;85.20
780;DHT22;373;49.342;8.146;2022-08-19T08:53:54;27.40;85.00
780;DHT22;373;49.342;8.146;2022-08-19T08:56:22;27.20;84.00
780;DHT22;373;49.342;8.146;2022-08-19T08:58:54;27.20;85.50
780;DHT22;373;49.342;8.146;2022-08-19T10:53:32;28.70;80.10
780;DHT22;373;49.342;8.146;2022-08-19T10:56:36;28.90;79.90
780;DHT22;373;49.342;8.146;2022-08-19T10:59:28;28.70;78.80
780;DHT22;373;49.342;8.146;2022-08-19T11:02:05;28.20;81.00
780;DHT22;373;49.342;8.146;2022-08-19T11:07:55;28.40;81.30
780;DHT22;373;49.342;8.146;2022-08-19T11:11:14;28.80;79.50
780;DHT22;373;49.342;8.146;2022-08-19T11:14:37;29.60;77.70
780;DHT22;373;49.342;8.146;2022-08-19T11:17:48;30.80;74.00
780;DHT22;373;49.342;8.146;2022-08-19T11:23:51;31.70;69.30
780;DHT22;373;49.342;8.146;2022-08-19T11:26:33;31.80;67.60
780;DHT22;373;49.342;8.146;2022-08-19T11:29:10;31.90;67.20
780;DHT22;373;49.342;8.146;2022-08-19T11:32:05;31.90;66.20
780;DHT22;373;49.342;8.146;2022-08-19T11:37:52;31.70;61.30
780;DHT22;373;49.342;8.146;2022-08-19T11:41:06;31.10;61.20
780;DHT22;373;49.342;8.146;2022-08-19T11:47:24;31.60;60.00
780;DHT22;373;49.342;8.146;2022-08-19T11:50:52;31.30;60.50
780;DHT22;373;49.342;8.146;2022-08-19T11:54:38;31.40;58.10
780;DHT22;373;49.342;8.146;2022-08-19T11:58:11;31.40;57.90
780;DHT22;373;49.342;8.146;2022-08-19T12:01:33;31.60;56.70
780;DHT22;373;49.342;8.146;2022-08-19T12:04:23;31.40;57.00
780;DHT22;373;49.342;8.146;2022-08-19T12:07:06;31.10;56.10
780;DHT22;373;49.342;8.146;2022-08-19T12:10:12;31.10;56.10
780;DHT22;373;49.342;8.146;2022-08-19T12:13:19;30.90;56.90
780;DHT22;373;49.342;8.146;2022-08-19T12:16:18;30.90;56.30
780;DHT22;373;49.342;8.146;2022-08-19T12:19:06;31.40;56.20
780;DHT22;373;49.342;8.146;2022-08-19T12:22:03;31.70;54.00
780;DHT22;373;49.342;8.146;2022-08-19T12:25:19;31.70;54.00
780;DHT22;373;49.342;8.146;2022-08-19T12:28:33;32.30;54.20
780;DHT22;373;49.342;8.146;2022-08-19T12:31:24;32.60;52.80
780;DHT22;373;49.342;8.146;2022-08-19T12:34:34;32.80;51.90
780;DHT22;373;49.342;8.146;2022-08-19T12:37:57;32.30;52.50
780;DHT22;373;49.342;8.146;2022-08-19T12:40:41;32.20;51.70
780;DHT22;373;49.342;8.146;2022-08-19T12:43:22;31.90;53.40
780;DHT22;373;49.342;8.146;2022-08-19T12:45:57;32.10;52.20
780;DHT22;373;49.342;8.146;2022-08-19T12:48:52;31.40;52.00
780;DHT22;373;49.342;8.146;2022-08-19T12:54:54;30.50;54.10
780;DHT22;373;49.342;8.146;2022-08-19T13:05:30;30.90;51.50
780;DHT22;373;49.342;8.146;2022-08-19T13:08:30;31.20;52.90
780;DHT22;373;49.342;8.146;2022-08-19T13:14:50;31.80;51.00
780;DHT22;373;49.342;8.146;2022-08-19T13:21:28;31.40;52.10
780;DHT22;373;49.342;8.146;2022-08-19T13:25:00;31.60;51.70
780;DHT22;373;49.342;8.146;2022-08-19T13:28:46;30.80;51.70
780;DHT22;373;49.342;8.146;2022-08-19T13:32:07;30.40;52.40
780;DHT22;373;49.342;8.146;2022-08-19T13:35:41;30.30;53.20
780;DHT22;373;49.342;8.146;2022-08-19T13:38:58;30.90;52.90
780;DHT22;373;49.342;8.146;2022-08-19T13:45:12;31.40;52.20
780;DHT22;373;49.342;8.146;2022-08-19T13:51:35;31.20;52.40
780;DHT22;373;49.342;8.146;2022-08-19T14:02:15;30.30;53.60
780;DHT22;373;49.342;8.146;2022-08-19T14:04:52;30.60;53.10
780;DHT22;373;49.342;8.146;2022-08-19T14:10:44;31.30;51.80
780;DHT22;373;49.342;8.146;2022-08-19T14:13:26;31.20;51.60
780;DHT22;373;49.342;8.146;2022-08-19T14:16:33;31.20;52.40
780;DHT22;373;49.342;8.146;2022-08-19T14:22:10;31.70;50.50
780;DHT22;373;49.342;8.146;2022-08-19T14:25:02;31.70;50.60
780;DHT22;373;49.342;8.146;2022-08-19T14:28:09;31.40;50.90
780;DHT22;373;49.342;8.146;2022-08-19T14:31:02;31.10;51.30
780;DHT22;373;49.342;8.146;2022-08-19T14:34:33;30.80;51.90
780;DHT22;373;49.342;8.146;2022-08-19T14:37:44;30.50;52.30
780;DHT22;373;49.342;8.146;2022-08-19T14:40:44;30.40;52.40
780;DHT22;373;49.342;8.146;2022-08-19T14:43:49;30.10;52.80
780;DHT22;373;49.342;8.146;2022-08-19T14:46:45;30.20;53.20
780;DHT22;373;49.342;8.146;2022-08-19T14:53:18;30.10;52.60
780;DHT22;373;49.342;8.146;2022-08-19T14:59:23;30.20;53.10
780;DHT22;373;49.342;8.146;2022-08-19T15:02:21;29.90;53.70
780;DHT22;373;49.342;8.146;2022-08-19T15:05:13;30.30;54.00
780;DHT22;373;49.342;8.146;2022-08-19T15:08:11;30.30;53.50
780;DHT22;373;49.342;8.146;2022-08-19T15:10:39;30.30;52.80
780;DHT22;373;49.342;8.146;2022-08-19T15:13:06;30.20;52.40
780;DHT22;373;49.342;8.146;2022-08-19T15:15:41;30.30;52.80
780;DHT22;373;49.342;8.146;2022-08-19T15:18:15;30.60;52.40
780;DHT22;373;49.342;8.146;2022-08-19T15:20:42;30.40;52.20
780;DHT22;373;49.342;8.146;2022-08-19T15:23:14;30.40;51.30
780;DHT22;373;49.342;8.146;2022-08-19T15:25:43;30.40;52.00
780;DHT22;373;49.342;8.146;2022-08-19T15:28:11;30.20;51.70
780;DHT22;373;49.342;8.146;2022-08-19T15:30:42;30.10;52.20
780;DHT22;373;49.342;8.146;2022-08-19T15:33:11;29.80;52.20
780;DHT22;373;49.342;8.146;2022-08-19T15:35:40;29.80;52.80
780;DHT22;373;49.342;8.146;2022-08-19T15:38:08;29.80;53.00
780;DHT22;373;49.342;8.146;2022-08-19T15:40:40;30.00;53.20
780;DHT22;373;49.342;8.146;2022-08-19T15:43:09;30.30;52.70
780;DHT22;373;49.342;8.146;2022-08-19T15:45:37;30.20;53.10
780;DHT22;373;49.342;8.146;2022-08-19T15:48:05;29.90;52.50
780;DHT22;373;49.342;8.146;2022-08-19T15:50:32;29.70;53.10
780;DHT22;373;49.342;8.146;2022-08-19T15:53:08;29.70;53.20
780;DHT22;373;49.342;8.146;2022-08-19T15:55:41;29.70;53.30
780;DHT22;373;49.342;8.146;2022-08-19T15:58:13;29.60;53.10
780;DHT22;373;49.342;8.146;2022-08-19T16:00:59;29.70;53.40
780;DHT22;373;49.342;8.146;2022-08-19T16:03:44;29.80;53.50
780;DHT22;373;49.342;8.146;2022-08-19T16:06:30;30.00;53.10
780;DHT22;373;49.342;8.146;2022-08-19T16:09:02;30.00;53.10
780;DHT22;373;49.342;8.146;2022-08-19T16:11:34;29.80;52.90
780;DHT22;373;49.342;8.146;2022-08-19T16:14:03;29.80;53.10
780;DHT22;373;49.342;8.146;2022-08-19T16:16:34;29.90;53.20
780;DHT22;373;49.342;8.146;2022-08-19T16:19:05;30.00;52.50
780;DHT22;373;49.342;8.146;2022-08-19T16:21:34;30.00;52.60
780;DHT22;373;49.342;8.146;2022-08-19T16:24:07;29.90;52.80
780;DHT22;373;49.342;8.146;2022-08-19T16:26:35;30.10;53.10
780;DHT22;373;49.342;8.146;2022-08-19T16:29:04;30.40;52.30
780;DHT22;373;49.342;8.146;2022-08-19T16:31:33;30.60;52.10
780;DHT22;373;49.342;8.146;2022-08-19T16:34:00;30.80;51.70
780;DHT22;373;49.342;8.146;2022-08-19T16:36:27;30.90;51.30
780;DHT22;373;49.342;8.146;2022-08-19T16:38:56;30.80;51.00
780;DHT22;373;49.342;8.146;2022-08-19T16:41:23;30.90;51.80
780;DHT22;373;49.342;8.146;2022-08-19T16:43:52;31.10;51.80
780;DHT22;373;49.342;8.146;2022-08-19T16:46:22;31.20;51.70
780;DHT22;373;49.342;8.146;2022-08-19T16:48:50;30.90;51.40
780;DHT22;373;49.342;8.146;2022-08-19T16:51:18;30.20;51.90
780;DHT22;373;49.342;8.146;2022-08-19T16:53:57;30.30;52.50
780;DHT22;373;49.342;8.146;2022-08-19T16:56:33;30.60;51.60
780;DHT22;373;49.342;8.146;2022-08-19T16:59:20;30.80;51.50
780;DHT22;373;49.342;8.146;2022-08-19T17:01:59;30.90;51.30
780;DHT22;373;49.342;8.146;2022-08-19T17:04:45;30.60;51.80
780;DHT22;373;49.342;8.146;2022-08-19T17:07:14;30.10;52.70
780;DHT22;373;49.342;8.146;2022-08-19T17:09:42;30.30;52.30
780;DHT22;373;49.342;8.146;2022-08-19T17:12:09;30.60;52.40
780;DHT22;373;49.342;8.146;2022-08-19T17:14:36;30.40;52.10
780;DHT22;373;49.342;8.146;2022-08-19T17:17:19;30.20;52.60
780;DHT22;373;49.342;8.146;2022-08-19T17:19:47;30.00;52.50
780;DHT22;373;49.342;8.146;2022-08-19T17:22:14;30.30;53.50
780;DHT22;373;49.342;8.146;2022-08-19T17:24:41;30.30;52.80
780;DHT22;373;49.342;8.146;2022-08-19T17:27:12;30.20;53.30
780;DHT22;373;49.342;8.146;2022-08-19T17:29:39;30.30;52.20
780;DHT22;373;49.342;8.146;2022-08-19T17:32:06;30.20;52.60
780;DHT22;373;49.342;8.146;2022-08-19T17:34:36;30.00;52.80
780;DHT22;373;49.342;8.146;2022-08-19T17:37:07;30.00;52.80
780;DHT22;373;49.342;8.146;2022-08-19T17:39:36;30.00;52.70
780;DHT22;373;49.342;8.146;2022-08-19T17:42:05;30.20;52.90
780;DHT22;373;49.342;8.146;2022-08-19T17:44:32;30.00;53.30
780;DHT22;373;49.342;8.146;2022-08-19T17:47:01;30.00;52.90
780;DHT22;373;49.342;8.146;2022-08-19T17:49:30;30.20;52.60
780;DHT22;373;49.342;8.146;2022-08-19T17:51:58;29.90;53.00
780;DHT22;373;49.342;8.146;2022-08-19T17:54:26;29.50;53.40
780;DHT22;373;49.342;8.146;2022-08-19T17:56:53;29.80;53.70
780;DHT22;373;49.342;8.146;2022-08-19T17:59:20;29.60;53.60
780;DHT22;373;49.342;8.146;2022-08-19T18:01:47;29.80;53.60
780;DHT22;373;49.342;8.146;2022-08-19T18:04:14;30.00;53.10
780;DHT22;373;49.342;8.146;2022-08-19T18:06:41;30.30;52.80
780;DHT22;373;49.342;8.146;2022-08-19T18:09:10;30.40;52.90
780;DHT22;373;49.342;8.146;2022-08-19T18:11:37;30.00;53.70
780;DHT22;373;49.342;8.146;2022-08-19T18:14:04;29.80;54.00
780;DHT22;373;49.342;8.146;2022-08-19T18:16:33;29.90;53.60
780;DHT22;373;49.342;8.146;2022-08-19T18:19:02;30.00;53.10
780;DHT22;373;49.342;8.146;2022-08-19T18:21:29;30.20;52.90
780;DHT22;373;49.342;8.146;2022-08-19T18:23:57;30.40;52.90
780;DHT22;373;49.342;8.146;2022-08-19T18:26:26;30.30;53.00
780;DHT22;373;49.342;8.146;2022-08-19T18:28:54;30.20;53.40
780;DHT22;373;49.342;8.146;2022-08-19T18:31:22;29.70;53.50
780;DHT22;373;49.342;8.146;2022-08-19T18:33:49;29.60;54.10
780;DHT22;373;49.342;8.146;2022-08-19T18:36:20;29.70;53.70
780;DHT22;373;49.342;8.146;2022-08-19T18:38:48;29.30;54.30
780;DHT22;373;49.342;8.146;2022-08-19T18:41:34;29.20;54.40
780;DHT22;373;49.342;8.146;2022-08-19T18:44:18;29.20;54.70
780;DHT22;373;49.342;8.146;2022-08-19T18:47:05;28.70;55.80
780;DHT22;373;49.342;8.146;2022-08-19T18:49:50;28.30;56.80
780;DHT22;373;49.342;8.146;2022-08-19T18:52:17;27.70;57.00
780;DHT22;373;49.342;8.146;2022-08-19T18:54:50;27.50;56.80
780;DHT22;373;49.342;8.146;2022-08-19T18:57:19;27.60;57.00
780;DHT22;373;49.342;8.146;2022-08-19T18:59:49;27.50;57.00
780;DHT22;373;49.342;8.146;2022-08-19T19:02:17;27.40;57.30
780;DHT22;373;49.342;8.146;2022-08-19T19:04:45;27.60;57.20
780;DHT22;373;49.342;8.146;2022-08-19T19:07:12;27.50;57.20
780;DHT22;373;49.342;8.146;2022-08-19T19:09:40;27.40;57.50
780;DHT22;373;49.342;8.146;2022-08-19T19:12:09;27.50;57.40
780;DHT22;373;49.342;8.146;2022-08-19T19:14:40;27.40;57.40
780;DHT22;373;49.342;8.146;2022-08-19T19:17:10;27.30;57.80
780;DHT22;373;49.342;8.146;2022-08-19T19:19:37;27.30;57.70
780;DHT22;373;49.342;8.146;2022-08-19T19:22:09;27.30;58.20
780;DHT22;373;49.342;8.146;2022-08-19T19:24:38;27.20;58.10
780;DHT22;373;49.342;8.146;2022-08-19T19:27:06;27.00;58.40
780;DHT22;373;49.342;8.146;2022-08-19T19:29:35;27.00;59.10
780;DHT22;373;49.342;8.146;2022-08-19T19:32:04;26.80;59.30
780;DHT22;373;49.342;8.146;2022-08-19T19:34:32;26.60;59.60
780;DHT22;373;49.342;8.146;2022-08-19T19:36:59;26.60;59.90
780;DHT22;373;49.342;8.146;2022-08-19T19:39:26;26.50;60.30
780;DHT22;373;49.342;8.146;2022-08-19T19:41:53;26.30;60.90
780;DHT22;373;49.342;8.146;2022-08-19T19:44:20;26.30;61.20
780;DHT22;373;49.342;8.146;2022-08-19T19:46:48;26.30;61.50
780;DHT22;373;49.342;8.146;2022-08-19T19:49:16;26.50;61.30
780;DHT22;373;49.342;8.146;2022-08-19T19:51:46;26.40;61.70
780;DHT22;373;49.342;8.146;2022-08-19T19:54:13;26.40;61.50
780;DHT22;373;49.342;8.146;2022-08-19T19:56:40;26.50;61.50
780;DHT22;373;49.342;8.146;2022-08-19T19:59:11;26.60;61.50
780;DHT22;373;49.342;8.146;2022-08-19T20:01:38;26.50;61.80
780;DHT22;373;49.342;8.146;2022-08-19T20:04:10;26.50;61.90
780;DHT22;373;49.342;8.146;2022-08-19T20:06:40;26.50;62.20
780;DHT22;373;49.342;8.146;2022-08-19T20:09:07;26.20;62.80
780;DHT22;373;49.342;8.146;2022-08-19T20:11:38;26.10;63.60
780;DHT22;373;49.342;8.146;2022-08-19T20:14:07;25.90;64.30
780;DHT22;373;49.342;8.146;2022-08-19T20:16:36;26.10;64.00
780;DHT22;373;49.342;8.146;2022-08-19T20:19:06;26.00;64.30
780;DHT22;373;49.342;8.146;2022-08-19T20:21:34;25.60;66.40
780;DHT22;373;49.342;8.146;2022-08-19T20:24:03;25.60;66.90
780;DHT22;373;49.342;8.146;2022-08-19T20:26:30;25.60;67.10
780;DHT22;373;49.342;8.146;2022-08-19T20:28:57;25.70;67.30
780;DHT22;373;49.342;8.146;2022-08-19T20:31:27;25.70;67.40
780;DHT22;373;49.342;8.146;2022-08-19T20:33:54;25.40;69.10
780;DHT22;373;49.342;8.146;2022-08-19T20:36:21;25.50;69.80